sensor_id;sensor_type;location;lat;lon;timestamp;pressure;altitude;pressure_sealevel;temperature;humidity
76074;BME280;64776;42.636;24.358;2023-06-14T00:02:04;89973.66;;;14.36;91.36
76074;BME280;64776;42.636;24.358;2023-06-14T00:05:05;89966.59;;;14.33;91.89
76074;BME280;64776;42.636;24.358;2023-06-14T00:08:06;89971.44;;;14.34;91.63
76074;BME280;64776;42.636;24.358;2023-06-14T00:11:08;89966.81;;;14.35;92.10
76074;BME280;64776;42.636;24.358;2023-06-14T00:14:09;89967.28;;;14.39;91.64
76074;BME280;64776;42.636;24.358;2023-06-14T00:17:10;89966.28;;;14.42;91.50
76074;BME280;64776;42.636;24.358;2023-06-14T00:20:11;89963.56;;;14.47;91.16
76074;BME280;64776;42.636;24.358;2023-06-14T00:23:12;89959.38;;;14.52;91.61
76074;BME280;64776;42.636;24.358;2023-06-14T00:26:14;89964.78;;;14.46;91.75
76074;BME280;64776;42.636;24.358;2023-06-14T00:29:15;89966.69;;;14.51;90.93
76074;BME280;64776;42.636;24.358;2023-06-14T00:32:15;89960.63;;;14.45;90.99
76074;BME280;64776;42.636;24.358;2023-06-14T00:35:17;89960.63;;;14.45;91.27
76074;BME280;64776;42.636;24.358;2023-06-14T00:38:18;89966.06;;;14.40;91.97
76074;BME280;64776;42.636;24.358;2023-06-14T00:41:20;89960.19;;;14.41;92.02
76074;BME280;64776;42.636;24.358;2023-06-14T00:44:21;89960.63;;;14.45;92.23
76074;BME280;64776;42.636;24.358;2023-06-14T00:47:22;89957.19;;;14.50;91.33
76074;BME280;64776;42.636;24.358;2023-06-14T00:50:24;89955.50;;;14.47;91.86
76074;BME280;64776;42.636;24.358;2023-06-14T00:53:25;89957.00;;;14.43;92.51
76074;BME280;64776;42.636;24.358;2023-06-14T00:56:28;89958.19;;;14.47;91.80
76074;BME280;64776;42.636;24.358;2023-06-14T00:59:29;89950.69;;;14.40;92.91
76074;BME280;64776;42.636;24.358;2023-06-14T01:02:30;89954.06;;;14.46;92.67
76074;BME280;64776;42.636;24.358;2023-06-14T01:05:31;89954.75;;;14.52;92.61
76074;BME280;64776;42.636;24.358;2023-06-14T01:08:45;89946.47;;;14.50;92.29
76074;BME280;64776;42.636;24.358;2023-06-14T01:11:54;89939.84;;;14.51;92.63
76074;BME280;64776;42.636;24.358;2023-06-14T01:15:00;89942.25;;;14.55;92.63
76074;BME280;64776;42.636;24.358;2023-06-14T01:18:01;89937.09;;;14.62;92.33
76074;BME280;64776;42.636;24.358;2023-06-14T01:21:02;89938.97;;;14.67;92.48
76074;BME280;64776;42.636;24.358;2023-06-14T01:24:05;89939.50;;;14.66;92.35
76074;BME280;64776;42.636;24.358;2023-06-14T01:27:07;89942.06;;;14.47;92.33
76074;BME280;64776;42.636;24.358;2023-06-14T01:30:09;89940.19;;;14.37;92.80
76074;BME280;64776;42.636;24.358;2023-06-14T01:33:11;89944.22;;;14.19;93.00
76074;BME280;64776;42.636;24.358;2023-06-14T01:36:13;89942.97;;;14.20;93.17
76074;BME280;64776;42.636;24.358;2023-06-14T01:39:17;89950.88;;;14.02;93.87
76074;BME280;64776;42.636;24.358;2023-06-14T01:42:18;89950.88;;;14.07;94.09
76074;BME280;64776;42.636;24.358;2023-06-14T01:45:20;89944.50;;;14.10;93.32
76074;BME280;64776;42.636;24.358;2023-06-14T01:48:22;89949.41;;;14.06;93.53
76074;BME280;64776;42.636;24.358;2023-06-14T01:51:23;89948.22;;;14.02;93.42
76074;BME280;64776;42.636;24.358;2023-06-14T01:54:25;89939.91;;;14.05;93.31
76074;BME280;64776;42.636;24.358;2023-06-14T01:57:26;89939.91;;;14.05;93.56
76074;BME280;64776;42.636;24.358;2023-06-14T02:00:27;89939.22;;;13.99;93.71
76074;BME280;64776;42.636;24.358;2023-06-14T02:03:29;89944.59;;;13.94;94.26
76074;BME280;64776;42.636;24.358;2023-06-14T02:06:30;89950.41;;;14.03;93.44
76074;BME280;64776;42.636;24.358;2023-06-14T02:09:32;89939.41;;;14.07;93.48
76074;BME280;64776;42.636;24.358;2023-06-14T02:12:33;89944.81;;;14.01;94.14
76074;BME280;64776;42.636;24.358;2023-06-14T02:15:34;89949.22;;;13.99;94.27
76074;BME280;64776;42.636;24.358;2023-06-14T02:18:36;89952.63;;;13.99;93.91
76074;BME280;64776;42.636;24.358;2023-06-14T02:21:37;89946.25;;;14.02;93.39
76074;BME280;64776;42.636;24.358;2023-06-14T02:24:39;89954.06;;;14.00;93.57
76074;BME280;64776;42.636;24.358;2023-06-14T02:27:39;89952.63;;;13.99;93.23
76074;BME280;64776;42.636;24.358;2023-06-14T02:30:40;89957.03;;;13.91;93.23
76074;BME280;64776;42.636;24.358;2023-06-14T02:33:41;89954.03;;;14.06;92.98
76074;BME280;64776;42.636;24.358;2023-06-14T02:36:42;89956.06;;;13.94;93.06
76074;BME280;64776;42.636;24.358;2023-06-14T02:39:44;89958.47;;;14.03;92.51
76074;BME280;64776;42.636;24.358;2023-06-14T02:42:45;89956.25;;;14.07;92.98
76074;BME280;64776;42.636;24.358;2023-06-14T02:45:46;89965.97;;;14.10;92.76
76074;BME280;64776;42.636;24.358;2023-06-14T02:48:47;89968.41;;;14.08;93.21
76074;BME280;64776;42.636;24.358;2023-06-14T02:51:47;89968.19;;;14.06;93.01
76074;BME280;64776;42.636;24.358;2023-06-14T02:54:50;89972.81;;;14.11;92.62
76074;BME280;64776;42.636;24.358;2023-06-14T02:57:51;89962.34;;;14.02;93.36
76074;BME280;64776;42.636;24.358;2023-06-14T03:00:51;89973.28;;;14.10;93.38
76074;BME280;64776;42.636;24.358;2023-06-14T03:03:52;89965.72;;;14.08;93.19
76074;BME280;64776;42.636;24.358;2023-06-14T03:06:53;89977.94;;;14.09;93.08
76074;BME280;64776;42.636;24.358;2023-06-14T03:09:55;89976.19;;;14.17;93.05
76074;BME280;64776;42.636;24.358;2023-06-14T03:12:56;89977.41;;;14.16;92.83
76074;BME280;64776;42.636;24.358;2023-06-14T03:15:57;89975.72;;;14.13;93.53
76074;BME280;64776;42.636;24.358;2023-06-14T03:18:57;89979.41;;;14.05;92.48
76074;BME280;64776;42.636;24.358;2023-06-14T03:21:58;89976.47;;;14.08;93.09
76074;BME280;64776;42.636;24.358;2023-06-14T03:25:00;89975.81;;;13.91;93.32
76074;BME280;64776;42.636;24.358;2023-06-14T03:28:01;89987.44;;;14.10;93.28
76074;BME280;64776;42.636;24.358;2023-06-14T03:31:02;89979.34;;;14.16;92.61
76074;BME280;64776;42.636;24.358;2023-06-14T03:34:03;89981.28;;;14.21;92.50
76074;BME280;64776;42.636;24.358;2023-06-14T03:37:04;89979.78;;;14.25;92.44
76074;BME280;64776;42.636;24.358;2023-06-14T03:40:07;89994.41;;;14.24;92.27
76074;BME280;64776;42.636;24.358;2023-06-14T03:43:08;89987.31;;;14.32;92.58
76074;BME280;64776;42.636;24.358;2023-06-14T03:46:09;89989.53;;;14.34;92.17
76074;BME280;64776;42.636;24.358;2023-06-14T03:49:10;89983.41;;;14.33;92.17
76074;BME280;64776;42.636;24.358;2023-06-14T03:52:11;89990.78;;;14.22;92.72
76074;BME280;64776;42.636;24.358;2023-06-14T03:55:13;89994.91;;;14.28;92.51
76074;BME280;64776;42.636;24.358;2023-06-14T03:58:14;90002.66;;;14.37;92.58
76074;BME280;64776;42.636;24.358;2023-06-14T04:01:15;89994.34;;;14.41;92.52
76074;BME280;64776;42.636;24.358;2023-06-14T04:04:15;89993.88;;;14.42;91.81
76074;BME280;64776;42.636;24.358;2023-06-14T04:07:16;90003.06;;;14.52;91.59
76074;BME280;64776;42.636;24.358;2023-06-14T04:10:24;90002.84;;;14.50;91.11
76074;BME280;64776;42.636;24.358;2023-06-14T04:13:25;89998.78;;;14.38;91.27
76074;BME280;64776;42.636;24.358;2023-06-14T04:16:51;89995.31;;;14.43;91.43
76074;BME280;64776;42.636;24.358;2023-06-14T04:19:52;89995.78;;;14.47;91.71
76074;BME280;64776;42.636;24.358;2023-06-14T04:22:52;90005.25;;;14.54;91.32
76074;BME280;64776;42.636;24.358;2023-06-14T04:25:57;89998.63;;;14.55;90.98
76074;BME280;64776;42.636;24.358;2023-06-14T04:28:58;90004.47;;;14.59;91.32
76074;BME280;64776;42.636;24.358;2023-06-14T04:31:59;90005.88;;;14.65;91.24
76074;BME280;64776;42.636;24.358;2023-06-14T04:35:00;90007.34;;;14.66;90.58
76074;BME280;64776;42.636;24.358;2023-06-14T04:38:01;90005.66;;;14.63;90.51
76074;BME280;64776;42.636;24.358;2023-06-14T04:41:03;90016.69;;;14.60;90.66
76074;BME280;64776;42.636;24.358;2023-06-14T04:44:04;90017.31;;;14.72;90.05
76074;BME280;64776;42.636;24.358;2023-06-14T04:47:05;90017.53;;;14.74;90.36
76074;BME280;64776;42.636;24.358;2023-06-14T04:50:06;90012.63;;;14.78;90.26
76074;BME280;64776;42.636;24.358;2023-06-14T04:53:07;90023.53;;;14.55;89.31
76074;BME280;64776;42.636;24.358;2023-06-14T04:56:09;90024.13;;;14.78;89.45
76074;BME280;64776;42.636;24.358;2023-06-14T04:59:10;90016.72;;;14.90;89.63
76074;BME280;64776;42.636;24.358;2023-06-14T05:02:11;90019.84;;;14.94;88.84
76074;BME280;64776;42.636;24.358;2023-06-14T05:05:12;90021.00;;;15.04;89.13
76074;BME280;64776;42.636;24.358;2023-06-14T05:08:13;90017.28;;;15.07;89.34
76074;BME280;64776;42.636;24.358;2023-06-14T05:11:15;90017.09;;;15.29;88.55
76074;BME280;64776;42.636;24.358;2023-06-14T05:14:16;90018.72;;;15.37;87.24
76074;BME280;64776;42.636;24.358;2023-06-14T05:17:17;90031.69;;;15.33;86.56
76074;BME280;64776;42.636;24.358;2023-06-14T05:20:18;90026.19;;;15.50;86.87
76074;BME280;64776;42.636;24.358;2023-06-14T05:23:19;90026.25;;;15.69;86.35
76074;BME280;64776;42.636;24.358;2023-06-14T05:26:21;90036.38;;;15.81;85.52
76074;BME280;64776;42.636;24.358;2023-06-14T05:29:23;90037.13;;;15.82;85.67
76074;BME280;64776;42.636;24.358;2023-06-14T05:32:23;90040.47;;;15.88;85.64
76074;BME280;64776;42.636;24.358;2023-06-14T05:35:24;90040.53;;;15.82;84.34
76074;BME280;64776;42.636;24.358;2023-06-14T05:38:25;90042.16;;;15.91;84.17
76074;BME280;64776;42.636;24.358;2023-06-14T05:41:27;90043.75;;;15.99;85.07
76074;BME280;64776;42.636;24.358;2023-06-14T05:44:28;90045.00;;;15.98;84.73
76074;BME280;64776;42.636;24.358;2023-06-14T05:47:29;90051.63;;;15.97;84.86
76074;BME280;64776;42.636;24.358;2023-06-14T05:50:30;90034.91;;;16.04;85.41
76074;BME280;64776;42.636;24.358;2023-06-14T05:53:31;90050.53;;;16.06;85.46
76074;BME280;64776;42.636;24.358;2023-06-14T05:56:33;90055.41;;;16.07;85.08
76074;BME280;64776;42.636;24.358;2023-06-14T05:59:34;90051.84;;;16.18;84.87
76074;BME280;64776;42.636;24.358;2023-06-14T06:02:35;90054.72;;;16.25;84.46
76074;BME280;64776;42.636;24.358;2023-06-14T06:05:35;90055.72;;;16.22;86.12
76074;BME280;64776;42.636;24.358;2023-06-14T06:08:36;90057.19;;;16.23;85.25
76074;BME280;64776;42.636;24.358;2023-06-14T06:11:38;90052.69;;;16.32;84.95
76074;BME280;64776;42.636;24.358;2023-06-14T06:14:39;90057.63;;;16.27;85.55
76074;BME280;64776;42.636;24.358;2023-06-14T06:17:40;90063.81;;;16.22;84.42
76074;BME280;64776;42.636;24.358;2023-06-14T06:20:41;90065.50;;;16.25;84.38
76074;BME280;64776;42.636;24.358;2023-06-14T06:23:42;90063.03;;;16.27;84.37
76074;BME280;64776;42.636;24.358;2023-06-14T06:26:44;90061.25;;;16.30;84.69
76074;BME280;64776;42.636;24.358;2023-06-14T06:29:45;90060.03;;;16.31;83.43
76074;BME280;64776;42.636;24.358;2023-06-14T06:32:46;90053.63;;;16.34;84.66
76074;BME280;64776;42.636;24.358;2023-06-14T06:35:46;90058.94;;;16.40;84.53
76074;BME280;64776;42.636;24.358;2023-06-14T06:38:47;90056.63;;;16.49;84.78
76074;BME280;64776;42.636;24.358;2023-06-14T06:41:49;90054.53;;;16.61;84.86
76074;BME280;64776;42.636;24.358;2023-06-14T06:44:50;90054.88;;;16.70;84.06
76074;BME280;64776;42.636;24.358;2023-06-14T06:47:51;90056.50;;;16.79;82.69
76074;BME280;64776;42.636;24.358;2023-06-14T06:50:52;90060.16;;;16.94;82.60
76074;BME280;64776;42.636;24.358;2023-06-14T06:53:53;90063.66;;;17.08;82.25
76074;BME280;64776;42.636;24.358;2023-06-14T06:56:56;90068.78;;;17.25;81.27
76074;BME280;64776;42.636;24.358;2023-06-14T06:59:57;90067.06;;;17.40;80.66
76074;BME280;64776;42.636;24.358;2023-06-14T07:02:58;90067.34;;;17.55;80.04
76074;BME280;64776;42.636;24.358;2023-06-14T07:05:58;90069.53;;;17.70;79.52
76074;BME280;64776;42.636;24.358;2023-06-14T07:08:59;90075.25;;;17.79;79.01
76074;BME280;64776;42.636;24.358;2023-06-14T07:12:01;90078.97;;;17.76;79.81
76074;BME280;64776;42.636;24.358;2023-06-14T07:15:03;90077.09;;;17.58;78.48
76074;BME280;64776;42.636;24.358;2023-06-14T07:18:03;90080.84;;;17.55;78.39
76074;BME280;64776;42.636;24.358;2023-06-14T07:21:08;90080.94;;;17.63;77.47
76074;BME280;64776;42.636;24.358;2023-06-14T07:24:09;90080.22;;;17.75;75.33
76074;BME280;64776;42.636;24.358;2023-06-14T07:27:11;90073.56;;;17.63;79.22
76074;BME280;64776;42.636;24.358;2023-06-14T07:30:12;90084.78;;;17.80;78.16
76074;BME280;64776;42.636;24.358;2023-06-14T07:33:13;90075.56;;;17.89;77.40
76074;BME280;64776;42.636;24.358;2023-06-14T07:36:14;90077.25;;;18.05;79.14
76074;BME280;64776;42.636;24.358;2023-06-14T07:39:15;90085.44;;;18.00;77.77
76074;BME280;64776;42.636;24.358;2023-06-14T07:42:17;90088.34;;;18.02;78.39
76074;BME280;64776;42.636;24.358;2023-06-14T07:45:18;90081.31;;;17.99;79.42
76074;BME280;64776;42.636;24.358;2023-06-14T07:48:19;90082.75;;;17.86;79.41
76074;BME280;64776;42.636;24.358;2023-06-14T07:51:20;90093.34;;;17.98;79.46
76074;BME280;64776;42.636;24.358;2023-06-14T07:54:22;90086.50;;;17.97;78.86
76074;BME280;64776;42.636;24.358;2023-06-14T07:57:24;90088.97;;;17.95;78.20
76074;BME280;64776;42.636;24.358;2023-06-14T08:00:25;90092.94;;;18.07;78.87
76074;BME280;64776;42.636;24.358;2023-06-14T08:03:26;90094.19;;;18.32;77.38
76074;BME280;64776;42.636;24.358;2023-06-14T08:06:27;90091.69;;;18.34;76.58
76074;BME280;64776;42.636;24.358;2023-06-14T08:09:28;90096.44;;;18.41;76.56
76074;BME280;64776;42.636;24.358;2023-06-14T08:12:30;90107.69;;;18.45;75.84
76074;BME280;64776;42.636;24.358;2023-06-14T08:15:31;90108.72;;;18.29;78.00
76074;BME280;64776;42.636;24.358;2023-06-14T08:18:32;90105.81;;;18.14;77.81
76074;BME280;64776;42.636;24.358;2023-06-14T08:21:32;90109.13;;;18.20;77.72
76074;BME280;64776;42.636;24.358;2023-06-14T08:24:33;90103.00;;;18.19;77.66
76074;BME280;64776;42.636;24.358;2023-06-14T08:27:35;90120.53;;;18.00;78.18
76074;BME280;64776;42.636;24.358;2023-06-14T08:30:36;90125.06;;;17.78;78.81
76074;BME280;64776;42.636;24.358;2023-06-14T08:33:37;90128.22;;;17.82;78.52
76074;BME280;64776;42.636;24.358;2023-06-14T08:36:38;90122.19;;;17.89;78.95
76074;BME280;64776;42.636;24.358;2023-06-14T08:39:38;90129.69;;;17.97;78.78
76074;BME280;64776;42.636;24.358;2023-06-14T08:42:41;90128.78;;;18.07;78.52
76074;BME280;64776;42.636;24.358;2023-06-14T08:45:42;90130.31;;;18.16;78.60
76074;BME280;64776;42.636;24.358;2023-06-14T08:48:44;90133.03;;;18.03;78.21
76074;BME280;64776;42.636;24.358;2023-06-14T08:51:45;90134.03;;;17.86;77.42
76074;BME280;64776;42.636;24.358;2023-06-14T08:54:46;90136.09;;;17.94;77.84
76074;BME280;64776;42.636;24.358;2023-06-14T08:57:49;90138.41;;;18.03;78.39
76074;BME280;64776;42.636;24.358;2023-06-14T09:00:50;90135.72;;;18.03;77.54
76074;BME280;64776;42.636;24.358;2023-06-14T09:03:51;90131.25;;;18.05;77.13
76074;BME280;64776;42.636;24.358;2023-06-14T09:06:51;90134.69;;;18.19;79.10
76074;BME280;64776;42.636;24.358;2023-06-14T09:10:07;90129.31;;;18.32;79.80
76074;BME280;64776;42.636;24.358;2023-06-14T09:13:09;90132.00;;;18.32;78.34
76074;BME280;64776;42.636;24.358;2023-06-14T09:16:10;90129.69;;;18.10;78.69
76074;BME280;64776;42.636;24.358;2023-06-14T09:19:14;90133.97;;;18.18;76.54
76074;BME280;64776;42.636;24.358;2023-06-14T09:22:16;90137.06;;;18.22;78.97
76074;BME280;64776;42.636;24.358;2023-06-14T09:25:17;90133.44;;;18.33;78.03
76074;BME280;64776;42.636;24.358;2023-06-14T09:28:19;90135.94;;;18.31;75.77
76074;BME280;64776;42.636;24.358;2023-06-14T09:31:21;90133.13;;;18.36;77.38
76074;BME280;64776;42.636;24.358;2023-06-14T09:34:22;90132.72;;;18.32;76.96
76074;BME280;64776;42.636;24.358;2023-06-14T09:37:29;90134.09;;;18.52;76.18
76074;BME280;64776;42.636;24.358;2023-06-14T09:40:33;90136.38;;;18.61;75.45
76074;BME280;64776;42.636;24.358;2023-06-14T09:43:35;90138.25;;;18.66;74.56
76074;BME280;64776;42.636;24.358;2023-06-14T09:46:37;90133.25;;;18.57;75.52
76074;BME280;64776;42.636;24.358;2023-06-14T09:49:39;90133.25;;;18.70;74.06
76074;BME280;64776;42.636;24.358;2023-06-14T09:52:40;90135.13;;;18.75;71.88
76074;BME280;64776;42.636;24.358;2023-06-14T09:55:44;90129.06;;;18.82;72.57
76074;BME280;64776;42.636;24.358;2023-06-14T09:58:47;90130.75;;;18.72;72.23
76074;BME280;64776;42.636;24.358;2023-06-14T10:01:50;90129.81;;;18.30;75.98
76074;BME280;64776;42.636;24.358;2023-06-14T10:04:57;90125.75;;;18.24;77.01
76074;BME280;64776;42.636;24.358;2023-06-14T10:08:00;90122.47;;;18.44;77.50
76074;BME280;64776;42.636;24.358;2023-06-14T10:11:04;90125.63;;;18.42;76.32
76074;BME280;64776;42.636;24.358;2023-06-14T10:14:07;90118.72;;;18.47;75.41
76074;BME280;64776;42.636;24.358;2023-06-14T10:17:12;90117.56;;;18.55;75.25
76074;BME280;64776;42.636;24.358;2023-06-14T10:20:25;90117.56;;;18.68;73.16
76074;BME280;64776;42.636;24.358;2023-06-14T10:23:33;90116.00;;;18.73;75.05
76074;BME280;64776;42.636;24.358;2023-06-14T10:26:50;90109.19;;;18.80;74.98
76074;BME280;64776;42.636;24.358;2023-06-14T10:30:07;90107.91;;;19.40;74.75
76074;BME280;64776;42.636;24.358;2023-06-14T10:33:08;90114.38;;;19.79;69.37
76074;BME280;64776;42.636;24.358;2023-06-14T10:36:11;90111.34;;;20.03;70.55
76074;BME280;64776;42.636;24.358;2023-06-14T10:39:24;90106.22;;;20.20;68.90
76074;BME280;64776;42.636;24.358;2023-06-14T10:42:29;90108.84;;;20.33;69.14
76074;BME280;64776;42.636;24.358;2023-06-14T10:45:33;90106.78;;;19.98;69.33
76074;BME280;64776;42.636;24.358;2023-06-14T10:48:34;90106.50;;;20.09;69.30
76074;BME280;64776;42.636;24.358;2023-06-14T10:51:42;90105.31;;;20.46;67.27
76074;BME280;64776;42.636;24.358;2023-06-14T10:55:08;90100.00;;;20.68;68.98
76074;BME280;64776;42.636;24.358;2023-06-14T10:58:09;90094.72;;;20.27;68.81
76074;BME280;64776;42.636;24.358;2023-06-14T11:01:12;90098.28;;;20.22;67.48
76074;BME280;64776;42.636;24.358;2023-06-14T11:04:13;90100.81;;;20.20;68.28
76074;BME280;64776;42.636;24.358;2023-06-14T11:07:27;90098.13;;;20.56;67.94
76074;BME280;64776;42.636;24.358;2023-06-14T11:10:37;90096.34;;;20.58;67.28
76074;BME280;64776;42.636;24.358;2023-06-14T11:13:38;90106.75;;;20.82;68.36
76074;BME280;64776;42.636;24.358;2023-06-14T11:16:40;90098.25;;;20.78;67.44
76074;BME280;64776;42.636;24.358;2023-06-14T11:19:41;90093.13;;;20.67;67.62
76074;BME280;64776;42.636;24.358;2023-06-14T11:22:42;90084.59;;;20.63;66.86
76074;BME280;64776;42.636;24.358;2023-06-14T11:25:43;90089.91;;;20.76;65.81
76074;BME280;64776;42.636;24.358;2023-06-14T11:28:44;90084.69;;;21.22;64.54
76074;BME280;64776;42.636;24.358;2023-06-14T11:31:47;90087.50;;;21.82;64.28
76074;BME280;64776;42.636;24.358;2023-06-14T11:34:47;90083.50;;;21.75;64.51
76074;BME280;64776;42.636;24.358;2023-06-14T11:38:13;90078.38;;;22.55;64.93
76074;BME280;64776;42.636;24.358;2023-06-14T11:41:14;90072.72;;;22.76;62.59
76074;BME280;64776;42.636;24.358;2023-06-14T11:44:15;90075.59;;;22.78;62.93
76074;BME280;64776;42.636;24.358;2023-06-14T11:47:17;90073.06;;;22.87;61.41
76074;BME280;64776;42.636;24.358;2023-06-14T11:50:18;90072.78;;;22.45;63.74
76074;BME280;64776;42.636;24.358;2023-06-14T11:53:19;90069.44;;;22.85;63.78
76074;BME280;64776;42.636;24.358;2023-06-14T11:56:20;90072.75;;;23.15;59.62
76074;BME280;64776;42.636;24.358;2023-06-14T11:59:21;90075.38;;;23.38;61.51
76074;BME280;64776;42.636;24.358;2023-06-14T12:02:23;90060.69;;;23.66;59.86
76074;BME280;64776;42.636;24.358;2023-06-14T12:05:25;90057.44;;;23.60;61.06
76074;BME280;64776;42.636;24.358;2023-06-14T12:08:32;90058.69;;;24.15;59.06
76074;BME280;64776;42.636;24.358;2023-06-14T12:11:34;90060.94;;;24.27;57.01
76074;BME280;64776;42.636;24.358;2023-06-14T12:14:35;90056.00;;;24.50;57.48
76074;BME280;64776;42.636;24.358;2023-06-14T12:17:39;90059.19;;;24.39;56.46
76074;BME280;64776;42.636;24.358;2023-06-14T12:20:39;90053.06;;;24.13;55.06
76074;BME280;64776;42.636;24.358;2023-06-14T12:23:45;90050.06;;;23.77;58.68
76074;BME280;64776;42.636;24.358;2023-06-14T12:26:46;90045.03;;;24.15;57.46
76074;BME280;64776;42.636;24.358;2023-06-14T12:29:58;90046.81;;;23.47;59.71
76074;BME280;64776;42.636;24.358;2023-06-14T12:33:01;90046.66;;;23.69;59.82
76074;BME280;64776;42.636;24.358;2023-06-14T12:36:03;90049.84;;;24.07;60.58
76074;BME280;64776;42.636;24.358;2023-06-14T12:39:04;90051.09;;;24.31;58.86
76074;BME280;64776;42.636;24.358;2023-06-14T12:42:05;90046.28;;;24.39;55.75
76074;BME280;64776;42.636;24.358;2023-06-14T12:45:07;90045.25;;;24.35;58.18
76074;BME280;64776;42.636;24.358;2023-06-14T12:48:09;90038.88;;;24.15;57.62
76074;BME280;64776;42.636;24.358;2023-06-14T12:51:10;90038.22;;;24.07;58.43
76074;BME280;64776;42.636;24.358;2023-06-14T12:54:11;90045.25;;;23.36;59.20
76074;BME280;64776;42.636;24.358;2023-06-14T12:57:12;90036.78;;;22.85;60.91
76074;BME280;64776;42.636;24.358;2023-06-14T13:00:14;90041.00;;;22.63;62.20
76074;BME280;64776;42.636;24.358;2023-06-14T13:03:16;90033.47;;;22.31;63.13
76074;BME280;64776;42.636;24.358;2023-06-14T13:06:17;90040.38;;;22.25;64.55
76074;BME280;64776;42.636;24.358;2023-06-14T13:09:17;90045.75;;;22.47;63.80
76074;BME280;64776;42.636;24.358;2023-06-14T13:12:18;90035.78;;;22.42;64.48
76074;BME280;64776;42.636;24.358;2023-06-14T13:15:19;90039.50;;;21.92;64.98
76074;BME280;64776;42.636;24.358;2023-06-14T13:18:21;90036.91;;;22.39;65.16
76074;BME280;64776;42.636;24.358;2023-06-14T13:21:22;90032.13;;;22.70;63.51
76074;BME280;64776;42.636;24.358;2023-06-14T13:24:23;90036.13;;;22.54;64.13
76074;BME280;64776;42.636;24.358;2023-06-14T13:27:25;90035.06;;;22.49;63.82
76074;BME280;64776;42.636;24.358;2023-06-14T13:30:26;90029.16;;;22.13;65.04
76074;BME280;64776;42.636;24.358;2023-06-14T13:33:28;90028.44;;;21.98;65.90
76074;BME280;64776;42.636;24.358;2023-06-14T13:36:29;90026.09;;;21.49;66.19
76074;BME280;64776;42.636;24.358;2023-06-14T13:39:30;90019.22;;;21.55;65.28
76074;BME280;64776;42.636;24.358;2023-06-14T13:42:31;90017.38;;;21.58;64.66
76074;BME280;64776;42.636;24.358;2023-06-14T13:45:32;90019.22;;;21.63;63.65
76074;BME280;64776;42.636;24.358;2023-06-14T13:48:34;90012.34;;;21.92;65.78
76074;BME280;64776;42.636;24.358;2023-06-14T13:51:35;90007.44;;;21.75;62.72
76074;BME280;64776;42.636;24.358;2023-06-14T13:54:35;90015.22;;;21.49;64.34
76074;BME280;64776;42.636;24.358;2023-06-14T13:57:36;90019.19;;;21.48;65.78
76074;BME280;64776;42.636;24.358;2023-06-14T14:00:37;90010.34;;;21.55;65.47
76074;BME280;64776;42.636;24.358;2023-06-14T14:03:39;90019.22;;;21.55;66.64
76074;BME280;64776;42.636;24.358;2023-06-14T14:06:40;90015.19;;;21.03;65.05
76074;BME280;64776;42.636;24.358;2023-06-14T14:09:41;90032.41;;;20.70;66.12
76074;BME280;64776;42.636;24.358;2023-06-14T14:12:41;90023.91;;;20.66;68.33
76074;BME280;64776;42.636;24.358;2023-06-14T14:15:42;90024.03;;;20.53;66.87
76074;BME280;64776;42.636;24.358;2023-06-14T14:18:45;90026.91;;;20.55;67.11
76074;BME280;64776;42.636;24.358;2023-06-14T14:21:46;90036.50;;;20.56;65.88
76074;BME280;64776;42.636;24.358;2023-06-14T14:24:47;90042.31;;;20.60;66.21
76074;BME280;64776;42.636;24.358;2023-06-14T14:27:48;90053.28;;;20.47;68.46
76074;BME280;64776;42.636;24.358;2023-06-14T14:30:49;90052.88;;;20.43;67.83
76074;BME280;64776;42.636;24.358;2023-06-14T14:33:51;90046.56;;;20.12;69.46
76074;BME280;64776;42.636;24.358;2023-06-14T14:36:53;90052.31;;;20.09;70.11
76074;BME280;64776;42.636;24.358;2023-06-14T14:39:54;90040.25;;;19.89;70.81
76074;BME280;64776;42.636;24.358;2023-06-14T14:42:55;90039.72;;;19.91;71.57
76074;BME280;64776;42.636;24.358;2023-06-14T14:45:55;90029.53;;;19.76;71.14
76074;BME280;64776;42.636;24.358;2023-06-14T14:48:58;90029.97;;;19.39;73.10
76074;BME280;64776;42.636;24.358;2023-06-14T14:51:59;90029.03;;;19.16;74.25
76074;BME280;64776;42.636;24.358;2023-06-14T14:55:00;90025.72;;;19.10;74.12
76074;BME280;64776;42.636;24.358;2023-06-14T14:58:00;90022.28;;;19.09;73.61
76074;BME280;64776;42.636;24.358;2023-06-14T15:01:01;90011.00;;;18.98;73.85
76074;BME280;64776;42.636;24.358;2023-06-14T15:04:04;90022.22;;;19.02;74.42
76074;BME280;64776;42.636;24.358;2023-06-14T15:07:05;90016.28;;;19.03;73.44
76074;BME280;64776;42.636;24.358;2023-06-14T15:10:07;90016.28;;;19.24;73.39
76074;BME280;64776;42.636;24.358;2023-06-14T15:13:08;90015.31;;;19.34;72.75
76074;BME280;64776;42.636;24.358;2023-06-14T15:28:04;90045.28;;;19.03;74.15
76074;BME280;64776;42.636;24.358;2023-06-14T15:31:05;90046.03;;;19.03;74.23
76074;BME280;64776;42.636;24.358;2023-06-14T15:34:05;90051.63;;;19.05;73.95
76074;BME280;64776;42.636;24.358;2023-06-14T15:37:07;90049.13;;;19.07;74.78
76074;BME280;64776;42.636;24.358;2023-06-14T15:40:09;90057.88;;;19.00;74.81
76074;BME280;64776;42.636;24.358;2023-06-14T15:43:12;90058.06;;;19.02;75.86
76074;BME280;64776;42.636;24.358;2023-06-14T15:46:13;90062.28;;;18.90;76.07
76074;BME280;64776;42.636;24.358;2023-06-14T15:49:14;90056.63;;;18.67;77.22
76074;BME280;64776;42.636;24.358;2023-06-14T15:52:15;90064.66;;;18.60;77.59
76074;BME280;64776;42.636;24.358;2023-06-14T15:55:16;90064.53;;;18.65;76.60
76074;BME280;64776;42.636;24.358;2023-06-14T15:58:18;90067.16;;;18.58;76.84
76074;BME280;64776;42.636;24.358;2023-06-14T16:01:18;90062.97;;;18.70;76.63
76074;BME280;64776;42.636;24.358;2023-06-14T16:04:19;90067.41;;;18.81;76.49